Time;durP1;ratioP1;P1;durP2;ratioP2;P2;SDS_P1;SDS_P2;PMS_P1;PMS_P2;Temp;Humidity;BMP_temperature;BMP_pressure;BME280_temperature;BME280_humidity;BME280_pressure;Samples;Min_cycle;Max_cycle;Signal;HPM_P1;HPM_P2
2023/02/21 02:14:43;;;;;;;2.90;1.17;;;;;;;9.31;61.18;97909.03;4969336;28;20045;-89
2023/02/21 02:17:21;;;;;;;2.22;1.30;;;;;;;9.29;61.69;97907.72;4969539;28;20459;-89
2023/02/21 02:20:18;;;;;;;1.88;1.10;;;;;;;9.26;62.68;97911.88;4980302;28;20474;-89
2023/02/21 02:23:17;;;;;;;2.78;1.30;;;;;;;9.22;62.12;97908.09;4971092;28;20042;-90
2023/02/21 02:25:59;;;;;;;3.35;1.30;;;;;;;9.18;62.19;97907.88;4968647;28;20031;-89
2023/02/21 02:29:06;;;;;;;3.17;1.25;;;;;;;9.19;62.95;97903.22;4969790;28;20066;-90
2023/02/21 02:32:09;;;;;;;2.00;1.20;;;;;;;9.17;62.98;97906.25;4969401;28;20034;-90
2023/02/21 02:34:43;;;;;;;2.17;1.20;;;;;;;9.16;63.39;97910.13;4969259;28;20043;-90
2023/02/21 02:37:13;;;;;;;1.63;1.00;;;;;;;9.12;63.71;97906.38;4970877;28;20035;-89
2023/02/21 02:39:50;;;;;;;3.33;1.30;;;;;;;9.11;64.64;97909.38;4969250;28;20047;-89
2023/02/21 02:42:35;;;;;;;8.15;2.58;;;;;;;9.07;64.31;97910.00;4969626;28;20026;-88
2023/02/21 02:45:23;;;;;;;1.50;1.00;;;;;;;9.07;64.85;97942.81;4970222;28;20031;-88
2023/02/21 02:47:54;;;;;;;1.48;0.80;;;;;;;9.05;65.85;97914.94;4969545;28;20093;-89
2023/02/21 02:50:21;;;;;;;1.63;0.80;;;;;;;9.01;66.24;97913.13;4968765;28;20023;-89
2023/02/21 02:52:55;;;;;;;1.52;0.88;;;;;;;8.95;66.94;97917.88;4970401;28;20114;-89
2023/02/21 02:55:38;;;;;;;0.90;0.73;;;;;;;8.89;66.56;97922.59;4969975;28;20105;-90
2023/02/21 02:58:04;;;;;;;2.58;1.10;;;;;;;8.87;67.97;97918.56;4969623;28;20039;-90
2023/02/21 03:00:33;;;;;;;1.58;1.10;;;;;;;8.79;67.97;97912.66;4969776;28;20406;-91
2023/02/21 03:03:30;;;;;;;2.22;1.17;;;;;;;8.73;67.71;97916.56;4970083;28;20185;-89
2023/02/21 03:06:04;;;;;;;1.15;0.90;;;;;;;8.71;67.81;97912.50;4967844;28;20053;-90
2023/02/21 03:08:44;;;;;;;2.22;0.90;;;;;;;8.66;68.29;97923.53;4969901;28;20042;-90
2023/02/21 03:11:10;;;;;;;;;;;;;;;8.63;68.90;97916.72;4970009;28;20204;-89
2023/02/21 03:13:44;;;;;;;1.63;1.10;;;;;;;8.61;68.96;97916.19;4972430;28;20318;-89
2023/02/21 03:16:15;;;;;;;3.00;1.38;;;;;;;8.56;68.61;97924.50;4988309;28;20057;-89
2023/02/21 03:18:47;;;;;;;2.03;1.48;;;;;;;8.55;68.67;97923.66;4971987;28;20067;-89
2023/02/21 03:21:28;;;;;;;1.80;1.08;;;;;;;8.53;69.60;97904.03;4973215;28;20085;-89
2023/02/21 03:23:57;;;;;;;3.05;1.30;;;;;;;8.49;69.83;97914.75;4973250;28;20023;-90
2023/02/21 03:26:26;;;;;;;4.50;1.20;;;;;;;8.48;69.82;97901.31;4973252;28;20027;-90
2023/02/21 03:28:53;;;;;;;3.67;1.30;;;;;;;8.49;70.55;97900.25;4969551;28;20494;-89
2023/02/21 03:31:23;;;;;;;2.85;1.40;;;;;;;8.52;70.16;97915.25;4972995;28;20030;-88
2023/02/21 03:33:50;;;;;;;3.10;1.50;;;;;;;8.51;69.75;97921.84;4973298;28;20031;-89
2023/02/21 03:36:15;;;;;;;2.72;1.00;;;;;;;8.54;70.39;97913.06;4972845;28;20120;-88
2023/02/21 03:38:41;;;;;;;1.60;1.00;;;;;;;8.52;70.33;97915.25;4972682;28;20501;-89
2023/02/21 03:41:09;;;;;;;3.95;1.17;;;;;;;8.53;70.09;97917.69;4972656;28;20054;-89
2023/02/21 03:43:35;;;;;;;3.58;1.30;;;;;;;8.55;70.50;97918.22;4971554;28;20062;-89
2023/02/21 03:46:00;;;;;;;1.25;0.82;;;;;;;8.55;71.19;97918.22;4972579;28;20101;-88
2023/02/21 03:48:25;;;;;;;2.15;1.00;;;;;;;8.54;70.78;97915.78;4973257;28;20038;-87
2023/02/21 03:50:51;;;;;;;1.70;0.90;;;;;;;8.53;70.82;97925.88;4972170;28;20073;-87
2023/02/21 03:53:16;;;;;;;2.10;0.73;;;;;;;8.55;70.72;97917.41;4972606;28;20058;-87
2023/02/21 03:55:42;;;;;;;1.98;0.85;;;;;;;8.54;71.45;97922.03;4972811;28;20073;-86
2023/02/21 03:58:07;;;;;;;1.63;1.00;;;;;;;8.52;71.49;97920.72;4972034;28;20062;-85
2023/02/21 04:00:32;;;;;;;1.88;1.17;;;;;;;8.52;71.53;97921.53;4971959;28;20050;-88
2023/02/21 04:02:58;;;;;;;2.75;1.05;;;;;;;8.48;71.46;97917.72;4972429;28;20494;-86
2023/02/21 04:05:23;;;;;;;1.20;1.08;;;;;;;8.46;71.04;97906.28;4970902;28;20488;-87
2023/02/21 04:07:48;;;;;;;1.90;0.90;;;;;;;8.46;71.33;97900.81;4973009;28;20042;-87
2023/02/21 04:10:14;;;;;;;4.57;0.90;;;;;;;8.46;71.40;97900.81;4971724;28;20495;-87
2023/02/21 04:12:39;;;;;;;1.02;0.73;;;;;;;8.46;71.62;97896.19;4972581;28;20031;-87
2023/02/21 04:15:05;;;;;;;1.13;0.95;;;;;;;8.43;71.21;97888.56;4972065;28;20023;-88
2023/02/21 04:17:30;;;;;;;0.90;0.80;;;;;;;8.43;71.04;97894.03;4972103;28;20041;-88
2023/02/21 04:19:56;;;;;;;1.17;1.08;;;;;;;8.43;71.85;97887.75;4972387;28;20376;-86
2023/02/21 04:22:21;;;;;;;2.05;1.02;;;;;;;8.43;71.58;97883.09;4971492;28;20066;-86
2023/02/21 04:24:47;;;;;;;1.98;0.95;;;;;;;8.44;71.68;97894.81;4971935;28;20525;-85
2023/02/21 04:27:13;;;;;;;3.17;1.33;;;;;;;8.45;71.75;97894.56;4972110;28;20038;-86
2023/02/21 04:29:38;;;;;;;2.40;1.80;;;;;;;8.44;71.07;97898.38;4971407;28;20590;-85
2023/02/21 04:32:04;;;;;;;5.07;2.95;;;;;;;8.44;71.25;97900.28;4971378;28;20058;-85
2023/02/21 04:34:29;;;;;;;9.35;5.07;;;;;;;8.46;71.47;97907.09;4971757;28;20019;-86
2023/02/21 04:36:54;;;;;;;9.05;6.10;;;;;;;8.45;71.53;97901.91;4972004;28;20530;-87
2023/02/21 04:39:20;;;;;;;9.60;7.22;;;;;;;8.45;71.55;97905.47;4971685;28;20041;-86
2023/02/21 04:41:45;;;;;;;7.50;4.70;;;;;;;8.44;71.68;97903.03;4971384;28;20019;-86
2023/02/21 04:44:11;;;;;;;8.93;4.97;;;;;;;8.40;71.19;97894.63;4971882;28;20123;-87
2023/02/21 04:46:37;;;;;;;6.50;3.90;;;;;;;8.40;71.16;97899.25;4971251;28;20476;-87
2023/02/21 04:49:02;;;;;;;3.50;2.17;;;;;;;8.40;71.14;97896.53;4971570;28;20030;-88
2023/02/21 04:51:27;;;;;;;3.65;2.03;;;;;;;8.38;71.58;97894.09;4970981;28;20061;-86
2023/02/21 04:53:54;;;;;;;4.82;2.50;;;;;;;8.37;71.09;97897.13;4971220;28;20046;-87
2023/02/21 04:56:22;;;;;;;4.97;3.20;;;;;;;8.35;70.76;97891.97;4971274;28;20034;-88
2023/02/21 04:58:48;;;;;;;11.13;4.60;;;;;;;8.36;71.10;97907.25;4971622;28;20035;-87
2023/02/21 05:01:15;;;;;;;5.47;3.20;;;;;;;8.34;70.82;97902.09;4969442;28;20030;-88
2023/02/21 05:03:40;;;;;;;4.70;2.95;;;;;;;8.34;71.15;97899.34;4970042;28;20031;-89
2023/02/21 05:06:06;;;;;;;5.30;2.92;;;;;;;8.36;70.64;97907.25;4971179;28;20035;-88
2023/02/21 05:08:31;;;;;;;7.03;3.40;;;;;;;8.38;70.41;97910.50;4971576;28;20747;-88
2023/02/21 05:10:57;;;;;;;5.18;2.72;;;;;;;8.40;71.21;97912.91;4970539;28;20400;-87
2023/02/21 05:13:22;;;;;;;4.22;2.70;;;;;;;8.40;70.92;97902.81;4971079;28;20023;-87
2023/02/21 05:15:49;;;;;;;5.35;2.90;;;;;;;8.40;70.83;97910.19;4969872;28;20045;-87
2023/02/21 05:18:22;;;;;;;5.03;2.83;;;;;;;8.40;70.93;97908.28;4969562;28;20038;-86
2023/02/21 05:20:50;;;;;;;5.38;2.83;;;;;;;8.38;70.63;97904.19;4970955;28;20038;-87
2023/02/21 05:23:32;;;;;;;5.72;3.55;;;;;;;8.41;70.90;97909.09;4971185;28;20435;-87
2023/02/21 05:26:02;;;;;;;5.30;3.13;;;;;;;8.42;70.97;97918.91;4971483;28;20027;-87
2023/02/21 05:28:28;;;;;;;4.90;3.00;;;;;;;8.40;70.96;97907.47;4968115;28;20054;-88
2023/02/21 05:30:54;;;;;;;7.32;3.97;;;;;;;8.37;70.50;97911.59;4969543;28;20061;-87
2023/02/21 05:33:20;;;;;;;4.85;3.10;;;;;;;8.38;70.29;97920.59;4970497;28;20078;-88
2023/02/21 05:35:48;;;;;;;5.45;3.55;;;;;;;8.38;70.96;97926.91;4969835;28;20035;-86
2023/02/21 05:38:14;;;;;;;5.78;3.25;;;;;;;8.37;70.49;97929.91;4952665;28;20039;-86
2023/02/21 05:40:40;;;;;;;6.97;3.80;;;;;;;8.38;70.90;97937.00;4970361;28;20031;-86
2023/02/21 05:43:05;;;;;;;6.70;3.75;;;;;;;8.37;70.63;97940.84;4970622;28;20416;-86
2023/02/21 05:45:31;;;;;;;5.18;3.75;;;;;;;8.33;71.18;97935.97;4971272;28;20039;-86
2023/02/21 05:47:59;;;;;;;7.18;4.05;;;;;;;8.30;71.68;97949.41;4971604;28;20050;-85
2023/02/21 05:50:28;;;;;;;7.43;4.38;;;;;;;8.25;71.04;97939.38;4970675;28;20081;-86
2023/02/21 05:52:54;;;;;;;8.10;4.97;;;;;;;8.22;71.10;97939.94;4971602;28;20027;-86
2023/02/21 05:55:19;;;;;;;14.63;8.02;;;;;;;8.19;71.78;97944.06;4971386;28;20388;-84
2023/02/21 05:57:44;;;;;;;10.38;5.82;;;;;;;8.13;72.05;97938.97;4971735;28;20033;-85
2023/02/21 06:00:24;;;;;;;8.50;5.57;;;;;;;8.09;71.89;97946.13;4971508;28;20427;-85
2023/02/21 06:02:51;;;;;;;13.13;7.00;;;;;;;8.05;72.11;97946.69;4970514;28;20027;-85
2023/02/21 06:05:18;;;;;;;15.70;8.98;;;;;;;8.00;72.37;97933.09;4971352;28;20522;-83
2023/02/21 06:07:44;;;;;;;18.45;9.70;;;;;;;7.99;72.05;97936.94;4971691;28;20059;-84
2023/02/21 06:10:09;;;;;;;12.20;5.18;;;;;;;7.96;72.77;97937.53;4970658;28;20510;-84
2023/02/21 06:12:35;;;;;;;8.63;4.45;;;;;;;7.95;72.79;97940.56;4971157;28;20115;-84
2023/02/21 06:15:01;;;;;;;8.05;4.22;;;;;;;7.94;73.10;97939.75;4971127;28;20031;-84
2023/02/21 06:17:26;;;;;;;6.65;3.13;;;;;;;7.91;73.03;97937.63;4969949;28;20035;-84
2023/02/21 06:19:54;;;;;;;9.23;3.65;;;;;;;7.90;73.11;97939.50;4970156;28;20492;-84
2023/02/21 06:22:19;;;;;;;6.65;3.70;;;;;;;7.88;72.84;97947.19;4970581;28;20125;-83
2023/02/21 06:24:44;;;;;;;7.28;4.30;;;;;;;7.89;73.68;97940.63;4971774;28;20106;-84
2023/02/21 06:27:10;;;;;;;8.88;4.60;;;;;;;7.90;73.51;97938.72;4969164;28;20046;-84
2023/02/21 06:29:35;;;;;;;10.07;4.30;;;;;;;7.91;74.43;97951.28;4971289;28;20046;-85
2023/02/21 06:32:00;;;;;;;7.22;4.18;;;;;;;7.91;73.33;97956.72;4971171;28;20030;-84
2023/02/21 06:34:27;;;;;;;8.18;3.97;;;;;;;7.93;73.61;97962.72;4971548;28;20027;-85
2023/02/21 06:36:54;;;;;;;8.32;5.05;;;;;;;7.93;73.62;97959.16;4970203;28;20031;-84
2023/02/21 06:39:20;;;;;;;18.15;9.60;;;;;;;7.94;73.39;97956.16;4971391;28;20125;-85
2023/02/21 06:41:48;;;;;;;20.42;11.52;;;;;;;7.96;73.35;97962.09;4970667;28;20727;-85
2023/02/21 06:44:13;;;;;;;15.13;7.82;;;;;;;8.00;73.93;97959.63;4968835;28;20031;-85
2023/02/21 06:46:38;;;;;;;17.77;9.02;;;;;;;8.04;73.76;97956.00;4970271;28;20495;-85
2023/02/21 06:49:04;;;;;;;5.28;3.33;;;;;;;8.09;74.15;97962.50;4974065;28;20023;-85
2023/02/21 06:51:34;;;;;;;5.60;2.90;;;;;;;8.11;74.32;97966.59;4974568;28;20415;-82
2023/02/21 06:53:59;;;;;;;4.25;2.78;;;;;;;8.14;74.40;97974.22;4974001;28;20508;-83
2023/02/21 06:56:26;;;;;;;5.35;2.67;;;;;;;8.15;74.41;97975.00;4973100;28;20444;-83
2023/02/21 06:58:51;;;;;;;7.57;3.08;;;;;;;8.17;74.77;97976.31;4973818;28;20042;-84
2023/02/21 07:01:17;;;;;;;3.72;2.22;;;;;;;8.20;75.05;97983.94;4970838;28;20023;-85
2023/02/21 07:03:44;;;;;;;6.43;2.78;;;;;;;8.22;74.72;97982.84;4969625;28;20578;-85
2023/02/21 07:06:09;;;;;;;4.82;2.85;;;;;;;8.24;75.03;97978.72;4969687;28;20060;-88
2023/02/21 07:08:35;;;;;;;3.70;1.70;;;;;;;8.28;74.79;97984.41;4972306;28;20478;-88
2023/02/21 07:11:00;;;;;;;19.63;8.70;;;;;;;8.30;75.01;97984.91;4972066;28;20440;-85
2023/02/21 07:13:25;;;;;;;9.23;3.55;;;;;;;8.32;75.99;97991.75;4971658;28;20506;-86
2023/02/21 07:15:51;;;;;;;3.58;1.63;;;;;;;8.34;75.93;97991.44;4972327;28;20599;-86
2023/02/21 07:18:16;;;;;;;2.60;1.70;;;;;;;8.34;76.52;97996.91;4973799;28;20074;-85
2023/02/21 07:20:43;;;;;;;1.90;1.55;;;;;;;8.30;75.85;97996.69;4973336;28;20114;-85
2023/02/21 07:23:08;;;;;;;2.70;1.90;;;;;;;8.28;76.13;98009.00;4973747;28;20053;-81
2023/02/21 07:25:34;;;;;;;3.50;1.90;;;;;;;8.28;76.02;97998.88;4972219;28;20039;-81
2023/02/21 07:27:59;;;;;;;7.13;3.10;;;;;;;8.32;76.69;98010.03;4973246;28;20054;-82
2023/02/21 07:30:25;;;;;;;4.22;2.10;;;;;;;8.32;76.37;98020.97;4972974;28;20027;-87
2023/02/21 07:32:50;;;;;;;3.58;2.00;;;;;;;8.32;76.98;98015.50;4972657;28;20110;-83
2023/02/21 07:35:17;;;;;;;4.72;2.90;;;;;;;8.33;76.48;98026.16;4972772;28;20027;-85
2023/02/21 07:37:42;;;;;;;4.95;2.58;;;;;;;8.31;77.08;98033.81;4972051;28;20018;-85
2023/02/21 07:40:08;;;;;;;5.15;2.20;;;;;;;8.32;76.73;98004.56;4971926;28;20034;-84
2023/02/21 07:42:33;;;;;;;2.30;1.50;;;;;;;8.34;76.99;98008.66;4968242;28;20488;-86
2023/02/21 07:44:59;;;;;;;3.05;1.50;;;;;;;8.41;77.29;98010.19;4972366;28;20186;-81
2023/02/21 07:47:26;;;;;;;2.38;1.70;;;;;;;8.44;77.16;98004.13;4972956;28;20031;-83
2023/02/21 07:49:52;;;;;;;4.18;1.60;;;;;;;8.50;76.99;98003.00;4973605;28;20035;-83
2023/02/21 07:52:18;;;;;;;2.90;1.73;;;;;;;8.55;77.11;98007.59;4973426;28;20029;-84
2023/02/21 07:54:44;;;;;;;4.20;2.42;;;;;;;8.58;77.13;98013.28;4971663;28;20046;-84
2023/02/21 07:57:09;;;;;;;3.90;1.50;;;;;;;8.64;77.13;98009.38;4969164;28;20023;-85
2023/02/21 07:59:36;;;;;;;3.28;1.80;;;;;;;8.70;77.15;98017.50;4978524;28;20086;-86
2023/02/21 08:02:03;;;;;;;3.10;1.38;;;;;;;8.73;77.36;98006.78;4972871;28;20038;-84
2023/02/21 08:04:28;;;;;;;3.15;1.50;;;;;;;8.74;77.55;98002.94;4978011;28;20043;-84
2023/02/21 08:07:01;;;;;;;2.50;1.60;;;;;;;8.76;76.89;98014.41;4969986;28;20022;-84
2023/02/21 08:09:27;;;;;;;2.88;1.50;;;;;;;8.85;77.53;98017.28;4970384;28;20022;-86
2023/02/21 08:11:52;;;;;;;23.95;10.18;;;;;;;8.89;76.82;98015.59;4973510;28;20041;-86
2023/02/21 08:14:18;;;;;;;3.40;1.73;;;;;;;8.90;76.70;98014.47;4972600;28;20034;-84
2023/02/21 08:16:43;;;;;;;3.45;1.90;;;;;;;8.92;76.73;98022.41;4972226;28;20399;-86
2023/02/21 08:19:09;;;;;;;2.50;1.60;;;;;;;8.95;76.47;98008.13;4972027;28;20089;-86
2023/02/21 08:21:34;;;;;;;1.52;1.30;;;;;;;8.99;76.73;98014.59;4970464;28;20038;-87
2023/02/21 08:24:00;;;;;;;1.80;1.33;;;;;;;9.03;76.58;98006.63;4972010;28;20108;-88
2023/02/21 08:26:25;;;;;;;2.15;1.52;;;;;;;9.07;76.15;98004.94;4972891;28;20030;-87
2023/02/21 08:28:50;;;;;;;2.30;1.40;;;;;;;9.11;75.84;98003.22;4972056;28;20038;-84
2023/02/21 08:31:17;;;;;;;1.83;1.30;;;;;;;9.18;76.53;98008.31;4971407;28;20030;-84
2023/02/21 08:33:43;;;;;;;4.47;2.08;;;;;;;9.27;76.02;98016.66;4973429;28;20472;-86
2023/02/21 08:36:09;;;;;;;1.60;1.40;;;;;;;9.32;75.92;98016.56;4986727;28;20404;-86
2023/02/21 08:38:34;;;;;;;1.98;1.30;;;;;;;9.39;76.45;98019.75;4973732;28;20053;-83
2023/02/21 08:41:01;;;;;;;2.30;1.60;;;;;;;9.48;75.95;98020.69;4973164;28;20031;-86
2023/02/21 08:43:27;;;;;;;2.17;1.33;;;;;;;9.52;74.94;98010.75;4973869;28;20388;-81
2023/02/21 08:45:53;;;;;;;3.17;1.33;;;;;;;9.57;74.82;98015.34;4973179;28;20034;-88
2023/02/21 08:48:18;;;;;;;1.50;1.02;;;;;;;9.59;74.32;98002.16;4973228;28;20038;-86
2023/02/21 08:50:44;;;;;;;2.08;1.00;;;;;;;9.69;74.17;98006.63;4973606;28;20539;-88
2023/02/21 08:53:13;;;;;;;1.17;1.00;;;;;;;9.81;74.32;97995.19;4971994;28;20070;-83
2023/02/21 08:55:38;;;;;;;1.63;1.13;;;;;;;9.84;73.95;98016.50;4972645;28;20118;-85
2023/02/21 08:58:03;;;;;;;2.80;1.15;;;;;;;9.88;74.20;98013.97;4971036;28;20114;-86
2023/02/21 09:00:29;;;;;;;2.10;0.77;;;;;;;9.93;73.38;98022.09;4970738;28;20034;-86
2023/02/21 09:02:56;;;;;;;1.67;1.10;;;;;;;9.90;73.53;98030.91;4974303;28;20066;-85
2023/02/21 09:05:25;;;;;;;2.35;1.30;;;;;;;9.92;72.55;98020.47;4972049;28;20090;-84
2023/02/21 09:07:57;;;;;;;2.50;1.90;;;;;;;9.95;73.19;98041.78;4974989;28;20043;-83
2023/02/21 09:10:27;;;;;;;5.03;1.83;;;;;;;9.97;72.25;98036.81;4970658;28;20054;-84
2023/02/21 09:12:52;;;;;;;2.70;1.30;;;;;;;9.93;72.18;98022.91;4969730;28;20031;-85
2023/02/21 09:15:18;;;;;;;14.38;12.88;;;;;;;9.90;71.72;98033.66;4968629;28;20058;-82
2023/02/21 09:17:44;;;;;;;3.30;1.65;;;;;;;9.91;71.92;98032.53;4971186;28;20117;-87
2023/02/21 09:20:14;;;;;;;3.22;2.00;;;;;;;9.93;71.45;98044.81;4972443;28;20524;-86
2023/02/21 09:22:42;;;;;;;;;;;;;;;9.97;72.10;98028.59;4972755;28;20035;-86
2023/02/21 09:25:11;;;;;;;2.33;1.30;;;;;;;9.98;71.10;98036.50;4972776;28;20387;-86
2023/02/21 09:27:37;;;;;;;3.42;2.00;;;;;;;10.04;71.93;98033.66;4970032;28;20019;-89
2023/02/21 09:30:25;;;;;;;2.53;1.73;;;;;;;10.08;71.25;98040.97;4972141;28;20031;-88
2023/02/21 09:32:51;;;;;;;2.35;1.25;;;;;;;10.10;70.81;98049.69;4971820;28;20043;-83
2023/02/21 09:35:16;;;;;;;3.47;2.15;;;;;;;10.12;70.73;98052.94;4967402;28;20411;-81
2023/02/21 09:37:43;;;;;;;2.13;1.30;;;;;;;10.20;70.91;98047.88;4972709;28;20027;-87
2023/02/21 09:40:19;;;;;;;3.67;1.38;;;;;;;10.31;70.90;98034.78;4971550;28;20113;-87
2023/02/21 09:42:48;;;;;;;1.80;1.20;;;;;;;10.37;70.23;98036.31;4973678;28;20468;-86
2023/02/21 09:45:15;;;;;;;1.73;1.20;;;;;;;10.38;70.05;98037.94;4971861;28;20105;-85
2023/02/21 09:47:43;;;;;;;2.15;1.27;;;;;;;10.38;69.38;98037.94;4973237;28;20375;-86
2023/02/21 09:50:14;;;;;;;1.33;1.08;;;;;;;10.37;70.44;98041.78;4970277;28;20085;-85
2023/02/21 09:52:44;;;;;;;1.58;1.20;;;;;;;10.40;69.83;98041.22;4969675;28;20538;-85
2023/02/21 09:55:27;;;;;;;2.10;1.40;;;;;;;10.39;69.56;98028.63;4971136;28;20098;-87
2023/02/21 09:57:53;;;;;;;1.33;1.20;;;;;;;10.35;69.22;98036.63;4969875;28;20073;-86
2023/02/21 10:00:35;;;;;;;0.75;0.70;;;;;;;10.36;68.64;98023.72;4969630;28;20535;-85
2023/02/21 10:03:13;;;;;;;2.65;1.33;;;;;;;10.32;69.51;98056.44;4970650;28;20038;-83
2023/02/21 10:05:43;;;;;;;2.58;1.10;;;;;;;10.33;69.31;98052.56;4969583;28;20074;-83
2023/02/21 10:08:29;;;;;;;;;;;;;;;10.30;69.64;98055.91;4974658;28;20027;-84
2023/02/21 10:11:05;;;;;;;2.60;1.27;;;;;;;10.23;69.73;98064.53;4968915;28;19957;-85
2023/02/21 10:14:25;;;;;;;1.90;1.00;;;;;;;10.21;69.84;98057.72;4969894;28;20042;-86
2023/02/21 10:17:23;;;;;;;1.90;1.20;;;;;;;10.25;70.66;98051.31;4965793;28;20023;-82
2023/02/21 10:19:53;;;;;;;1.75;1.10;;;;;;;10.32;70.50;98056.44;4969698;28;20039;-81
2023/02/21 10:22:25;;;;;;;2.88;1.77;;;;;;;10.33;69.89;98076.41;4966235;28;20030;-83
2023/02/21 10:24:51;;;;;;;2.30;1.38;;;;;;;10.34;69.58;98067.06;4968086;28;20030;-87
2023/02/21 10:27:20;;;;;;;1.98;1.25;;;;;;;10.34;69.65;98058.84;4968934;28;20047;-86
2023/02/21 10:30:09;;;;;;;2.33;1.08;;;;;;;10.35;69.92;98069.53;4965540;28;20039;-80
2023/02/21 10:32:35;;;;;;;3.13;1.80;;;;;;;10.38;69.21;98055.22;4969573;28;20034;-87
2023/02/21 10:35:01;;;;;;;3.88;2.10;;;;;;;10.35;69.28;98055.81;4969599;28;20037;-85
2023/02/21 10:37:39;;;;;;;4.28;2.00;;;;;;;10.41;68.76;98067.50;4969492;28;20023;-87
2023/02/21 10:40:35;;;;;;;2.20;1.20;;;;;;;10.49;69.17;98074.19;4970733;28;20042;-84
2023/02/21 10:43:36;;;;;;;2.25;1.25;;;;;;;10.57;69.01;98059.78;4965967;28;20047;-84
2023/02/21 10:46:12;;;;;;;2.55;1.10;;;;;;;10.68;68.25;98069.44;4967938;28;20125;-87
2023/02/21 10:48:41;;;;;;;2.65;1.35;;;;;;;10.71;67.40;98078.97;4970301;28;20547;-86
2023/02/21 10:51:13;;;;;;;1.10;1.00;;;;;;;10.70;67.15;98077.34;4968947;28;20031;-83
2023/02/21 10:53:41;;;;;;;2.50;1.60;;;;;;;10.71;67.17;98068.00;4968311;28;20057;-82
2023/02/21 10:56:17;;;;;;;3.28;2.20;;;;;;;10.69;67.07;98060.09;4969417;28;20058;-82
2023/02/21 10:59:05;;;;;;;4.03;2.85;;;;;;;10.66;67.11;98074.41;4969404;28;21210;-85
2023/02/21 11:01:35;;;;;;;4.00;1.70;;;;;;;10.65;66.81;98070.03;4968452;28;20050;-85
2023/02/21 11:04:05;;;;;;;3.72;2.38;;;;;;;10.64;66.76;98073.06;4969803;28;20508;-88
2023/02/21 11:06:30;;;;;;;8.38;4.78;;;;;;;10.60;66.85;98059.19;4967756;28;20034;-87
2023/02/21 11:08:56;;;;;;;15.43;7.10;;;;;;;10.61;66.96;98069.03;4969916;28;20101;-84
2023/02/21 11:11:41;;;;;;;6.18;3.35;;;;;;;10.60;67.78;98075.63;4971399;28;20042;-82
2023/02/21 11:14:25;;;;;;;2.13;1.50;;;;;;;10.63;67.79;98072.28;4968040;28;20022;-84
2023/02/21 11:17:06;;;;;;;3.70;2.08;;;;;;;10.62;67.86;98065.16;4968507;28;20031;-83
2023/02/21 11:19:52;;;;;;;10.95;4.38;;;;;;;10.53;67.96;98075.22;4967705;28;20042;-84
2023/02/21 11:22:35;;;;;;;9.15;3.42;;;;;;;10.45;68.36;98081.41;4968980;28;20033;-87
2023/02/21 11:25:25;;;;;;;5.88;3.22;;;;;;;10.28;68.30;98089.09;4968871;28;20027;-88
2023/02/21 11:28:16;;;;;;;4.97;2.58;;;;;;;10.20;69.67;98089.78;4968930;28;20066;-80
2023/02/21 11:30:50;;;;;;;2.75;1.50;;;;;;;10.13;70.02;98081.97;4966898;28;20110;-88
2023/02/21 11:33:20;;;;;;;4.75;2.22;;;;;;;10.09;69.91;98102.88;4966851;28;20084;-83
2023/02/21 11:35:47;;;;;;;4.38;2.28;;;;;;;10.03;70.81;98095.84;4971689;28;20092;-81
2023/02/21 11:38:36;;;;;;;4.65;2.50;;;;;;;10.04;70.70;98091.22;4970432;28;20510;-84
2023/02/21 11:41:14;;;;;;;3.25;1.75;;;;;;;10.02;71.10;98087.94;4985302;28;20381;-81
2023/02/21 11:43:51;;;;;;;4.50;2.28;;;;;;;10.10;71.54;98099.03;4970503;28;20041;-81
2023/02/21 11:46:39;;;;;;;2.42;1.55;;;;;;;10.28;71.56;98102.00;4971315;28;20042;-81
2023/02/21 11:49:04;;;;;;;7.05;3.50;;;;;;;10.38;71.60;98082.63;4971372;28;20030;-81
2023/02/21 11:51:44;;;;;;;7.35;3.10;;;;;;;10.51;71.76;98092.00;4970777;28;20786;-82
2023/02/21 11:54:11;;;;;;;2.42;1.50;;;;;;;10.65;70.77;98086.50;4972069;28;20495;-82
2023/02/21 11:56:53;;;;;;;4.57;2.08;;;;;;;10.69;70.60;98090.25;4969865;28;20030;-84
2023/02/21 11:59:49;;;;;;;3.65;1.85;;;;;;;10.75;70.18;98085.47;4970743;28;20455;-82
2023/02/21 12:02:25;;;;;;;5.10;2.42;;;;;;;10.79;70.19;98078.25;4968591;28;20043;-84
2023/02/21 12:05:14;;;;;;;5.32;2.22;;;;;;;10.79;67.59;98075.50;4971723;28;20033;-82
2023/02/21 12:08:21;;;;;;;5.10;2.30;;;;;;;10.74;67.89;98081.09;4972179;28;20039;-81
2023/02/21 12:11:07;;;;;;;4.80;2.60;;;;;;;10.74;68.67;98094.00;4976972;28;20022;-85
2023/02/21 12:13:44;;;;;;;4.45;3.33;;;;;;;10.67;69.07;98095.22;4971808;28;20073;-83
2023/02/21 12:16:42;;;;;;;2.70;2.10;;;;;;;10.56;69.46;98099.28;4972405;28;20034;-85
2023/02/21 12:19:22;;;;;;;7.25;4.13;;;;;;;10.52;69.32;98104.59;4970946;28;20070;-83
2023/02/21 12:22:11;;;;;;;7.75;4.20;;;;;;;10.47;69.82;98103.84;4968430;28;20110;-84
2023/02/21 12:24:55;;;;;;;5.90;3.40;;;;;;;10.52;70.23;98101.84;4972556;28;20445;-85
2023/02/21 12:27:28;;;;;;;5.70;3.88;;;;;;;10.60;70.33;98088.53;4969368;28;20101;-82
2023/02/21 12:30:13;;;;;;;5.13;3.60;;;;;;;10.67;71.04;98078.78;4972056;28;20110;-84
2023/02/21 12:32:48;;;;;;;3.22;1.63;;;;;;;10.66;70.63;98079.91;4970142;28;20086;-77
2023/02/21 12:35:48;;;;;;;3.55;2.05;;;;;;;10.54;70.66;98079.59;4973237;28;20015;-80
2023/02/21 12:38:22;;;;;;;5.38;3.00;;;;;;;10.50;70.34;98090.38;4971591;28;20089;-78
2023/02/21 12:41:17;;;;;;;7.68;3.42;;;;;;;10.40;70.59;98090.56;4971842;28;20046;-84
2023/02/21 12:44:04;;;;;;;3.42;2.00;;;;;;;10.36;70.65;98093.09;4971963;28;20043;-84
2023/02/21 12:46:53;;;;;;;3.25;1.92;;;;;;;10.31;70.00;98089.59;4971061;28;20031;-84
2023/02/21 12:49:24;;;;;;;4.00;2.40;;;;;;;10.35;70.58;98088.72;4970346;28;20050;-81
2023/02/21 12:51:59;;;;;;;4.20;2.13;;;;;;;10.47;70.73;98081.91;4971680;28;20444;-80
2023/02/21 12:54:47;;;;;;;4.47;2.00;;;;;;;10.62;70.92;98080.78;4970935;28;20069;-85
2023/02/21 12:57:17;;;;;;;2.53;1.73;;;;;;;10.77;70.61;98055.78;4970795;28;20022;-84
2023/02/21 12:59:52;;;;;;;2.50;2.00;;;;;;;10.82;70.59;98063.91;4970951;28;20063;-85
2023/02/21 13:02:39;;;;;;;3.65;2.70;;;;;;;10.89;70.17;98062.69;4968872;28;20027;-83
2023/02/21 13:05:15;;;;;;;1.98;1.60;;;;;;;10.98;69.84;98066.34;4971885;28;20027;-80
2023/02/21 13:08:22;;;;;;;3.38;2.22;;;;;;;10.91;68.46;98055.75;4968383;28;20023;-82
2023/02/21 13:10:54;;;;;;;2.33;1.60;;;;;;;10.92;68.37;98054.66;4968829;28;20038;-84
2023/02/21 13:13:27;;;;;;;2.22;1.40;;;;;;;11.05;68.05;98072.19;4968707;28;20163;-83
2023/02/21 13:15:53;;;;;;;1.85;1.30;;;;;;;11.22;67.05;98070.72;4969676;28;20160;-82
2023/02/21 13:18:46;;;;;;;2.15;1.40;;;;;;;11.31;65.92;98053.19;4968108;28;20081;-84
2023/02/21 13:21:36;;;;;;;4.13;2.70;;;;;;;11.31;66.06;98068.88;4967625;28;20065;-84
2023/02/21 13:24:12;;;;;;;3.08;1.80;;;;;;;11.27;65.89;98082.41;4969161;28;20035;-83
2023/02/21 13:26:53;;;;;;;1.80;1.20;;;;;;;11.19;65.78;98079.59;4967329;28;20034;-83
2023/02/21 13:29:31;;;;;;;2.35;1.33;;;;;;;10.96;66.69;98087.78;4971060;28;20444;-83
2023/02/21 13:32:09;;;;;;;1.92;1.50;;;;;;;10.82;66.34;98094.09;4971525;28;20523;-83
2023/02/21 13:34:39;;;;;;;1.52;1.20;;;;;;;10.76;67.17;98094.53;4970795;28;20491;-82
2023/02/21 13:37:12;;;;;;;1.55;1.25;;;;;;;10.66;67.95;98088.13;4970777;28;20097;-83
2023/02/21 13:39:50;;;;;;;2.20;2.00;;;;;;;10.60;68.57;98102.25;4984276;28;20080;-83
2023/02/21 13:42:22;;;;;;;2.13;1.40;;;;;;;10.64;68.44;98105.97;4971911;28;20035;-84
2023/02/21 13:44:50;;;;;;;1.95;1.50;;;;;;;10.79;68.56;98107.63;4971496;28;20053;-85
2023/02/21 13:47:21;;;;;;;2.65;1.52;;;;;;;11.00;69.00;98106.06;4971550;28;20514;-84
2023/02/21 13:49:54;;;;;;;3.22;2.22;;;;;;;11.09;68.94;98099.84;4970864;28;20038;-84
2023/02/21 13:52:22;;;;;;;2.92;2.20;;;;;;;11.13;67.46;98103.59;4970769;28;21688;-84
2023/02/21 13:55:18;;;;;;;3.05;2.00;;;;;;;11.01;67.81;98099.44;4970936;28;20126;-85
2023/02/21 13:57:56;;;;;;;2.63;1.88;;;;;;;10.93;67.82;98108.41;4968648;28;20058;-85
2023/02/21 14:00:27;;;;;;;2.80;2.22;;;;;;;10.85;68.54;98095.41;4971295;28;20054;-85
2023/02/21 14:03:16;;;;;;;2.90;2.03;;;;;;;10.87;68.62;98104.13;4972196;28;20475;-85
2023/02/21 14:05:45;;;;;;;2.35;1.75;;;;;;;10.98;68.76;98107.50;4972027;28;20172;-85
2023/02/21 14:08:32;;;;;;;2.40;1.77;;;;;;;11.06;68.88;98094.97;4972250;28;20034;-85
2023/02/21 14:11:22;;;;;;;4.15;1.58;;;;;;;11.15;68.85;98099.41;4970984;28;20034;-85
2023/02/21 14:13:52;;;;;;;3.22;1.63;;;;;;;11.26;68.68;98099.19;4971919;28;20042;-85
2023/02/21 14:16:23;;;;;;;7.25;4.95;;;;;;;11.18;67.80;98100.75;4972431;28;20035;-85